sensor_id;sensor_type;location;lat;lon;timestamp;P1;durP1;ratioP1;P2;durP2;ratioP2
787;SDS011;16074;42.708;23.312;2023-08-06T00:00:45;9.50;;;8.00;;
787;SDS011;16074;42.708;23.312;2023-08-06T00:03:15;8.67;;;6.70;;
787;SDS011;16074;42.708;23.312;2023-08-06T00:05:44;8.20;;;7.50;;
787;SDS011;16074;42.708;23.312;2023-08-06T00:08:12;8.80;;;7.87;;
787;SDS011;16074;42.708;23.312;2023-08-06T00:10:40;8.07;;;7.37;;
787;SDS011;16074;42.708;23.312;2023-08-06T00:13:09;7.77;;;7.07;;
787;SDS011;16074;42.708;23.312;2023-08-06T00:15:37;8.40;;;6.93;;
787;SDS011;16074;42.708;23.312;2023-08-06T00:18:06;10.23;;;7.13;;
787;SDS011;16074;42.708;23.312;2023-08-06T00:20:35;9.73;;;7.83;;
787;SDS011;16074;42.708;23.312;2023-08-06T00:23:07;11.30;;;10.07;;
787;SDS011;16074;42.708;23.312;2023-08-06T00:25:36;8.00;;;7.30;;
787;SDS011;16074;42.708;23.312;2023-08-06T00:28:04;8.20;;;7.40;;
787;SDS011;16074;42.708;23.312;2023-08-06T00:30:33;8.00;;;7.30;;
787;SDS011;16074;42.708;23.312;2023-08-06T00:33:01;9.10;;;7.50;;
787;SDS011;16074;42.708;23.312;2023-08-06T00:35:29;8.77;;;7.97;;
787;SDS011;16074;42.708;23.312;2023-08-06T00:37:59;8.00;;;7.33;;
787;SDS011;16074;42.708;23.312;2023-08-06T00:40:27;8.57;;;7.80;;
787;SDS011;16074;42.708;23.312;2023-08-06T00:42:56;9.43;;;8.00;;
787;SDS011;16074;42.708;23.312;2023-08-06T00:45:24;8.67;;;7.70;;
787;SDS011;16074;42.708;23.312;2023-08-06T00:47:53;8.67;;;7.80;;
787;SDS011;16074;42.708;23.312;2023-08-06T00:50:21;8.67;;;7.87;;
787;SDS011;16074;42.708;23.312;2023-08-06T00:52:50;10.90;;;8.40;;
787;SDS011;16074;42.708;23.312;2023-08-06T00:55:19;9.87;;;8.10;;
787;SDS011;16074;42.708;23.312;2023-08-06T00:57:48;8.60;;;7.37;;
787;SDS011;16074;42.708;23.312;2023-08-06T01:00:17;10.40;;;8.80;;
787;SDS011;16074;42.708;23.312;2023-08-06T01:02:47;9.20;;;8.30;;
787;SDS011;16074;42.708;23.312;2023-08-06T01:05:16;8.90;;;8.17;;
787;SDS011;16074;42.708;23.312;2023-08-06T01:07:46;9.30;;;8.40;;
787;SDS011;16074;42.708;23.312;2023-08-06T01:10:30;8.97;;;8.10;;
787;SDS011;16074;42.708;23.312;2023-08-06T01:13:08;9.43;;;8.27;;
787;SDS011;16074;42.708;23.312;2023-08-06T01:15:46;8.37;;;7.67;;
787;SDS011;16074;42.708;23.312;2023-08-06T01:18:17;9.13;;;8.20;;
787;SDS011;16074;42.708;23.312;2023-08-06T01:20:47;8.87;;;8.17;;
787;SDS011;16074;42.708;23.312;2023-08-06T01:23:16;8.70;;;7.90;;
787;SDS011;16074;42.708;23.312;2023-08-06T01:25:47;7.87;;;7.17;;
787;SDS011;16074;42.708;23.312;2023-08-06T01:28:22;8.50;;;7.77;;
787;SDS011;16074;42.708;23.312;2023-08-06T01:30:55;8.70;;;7.87;;
787;SDS011;16074;42.708;23.312;2023-08-06T01:33:28;9.77;;;8.00;;
787;SDS011;16074;42.708;23.312;2023-08-06T01:36:01;9.00;;;8.10;;
787;SDS011;16074;42.708;23.312;2023-08-06T01:38:31;11.40;;;8.77;;
787;SDS011;16074;42.708;23.312;2023-08-06T01:41:00;9.30;;;8.37;;
787;SDS011;16074;42.708;23.312;2023-08-06T01:43:28;11.07;;;9.97;;
787;SDS011;16074;42.708;23.312;2023-08-06T01:45:56;9.97;;;9.07;;
787;SDS011;16074;42.708;23.312;2023-08-06T01:48:25;9.83;;;8.93;;
787;SDS011;16074;42.708;23.312;2023-08-06T01:50:53;9.20;;;8.40;;
787;SDS011;16074;42.708;23.312;2023-08-06T01:53:22;11.17;;;9.10;;
787;SDS011;16074;42.708;23.312;2023-08-06T01:55:51;9.70;;;8.83;;
787;SDS011;16074;42.708;23.312;2023-08-06T01:58:20;9.20;;;8.40;;
787;SDS011;16074;42.708;23.312;2023-08-06T02:00:48;10.10;;;9.10;;
787;SDS011;16074;42.708;23.312;2023-08-06T02:03:16;8.70;;;8.00;;
787;SDS011;16074;42.708;23.312;2023-08-06T02:05:47;10.80;;;9.20;;
787;SDS011;16074;42.708;23.312;2023-08-06T02:08:20;9.27;;;8.47;;
787;SDS011;16074;42.708;23.312;2023-08-06T02:10:49;8.83;;;7.83;;
787;SDS011;16074;42.708;23.312;2023-08-06T02:13:17;8.33;;;7.73;;
787;SDS011;16074;42.708;23.312;2023-08-06T02:15:46;9.30;;;8.37;;
787;SDS011;16074;42.708;23.312;2023-08-06T02:18:15;8.90;;;8.10;;
787;SDS011;16074;42.708;23.312;2023-08-06T02:20:43;10.33;;;9.23;;
787;SDS011;16074;42.708;23.312;2023-08-06T02:23:22;12.37;;;8.80;;
787;SDS011;16074;42.708;23.312;2023-08-06T02:25:57;9.67;;;8.77;;
787;SDS011;16074;42.708;23.312;2023-08-06T02:28:27;10.50;;;9.17;;
787;SDS011;16074;42.708;23.312;2023-08-06T02:30:55;25.57;;;11.40;;
787;SDS011;16074;42.708;23.312;2023-08-06T02:33:24;13.10;;;10.17;;
787;SDS011;16074;42.708;23.312;2023-08-06T02:36:01;11.17;;;9.97;;
787;SDS011;16074;42.708;23.312;2023-08-06T02:38:31;16.67;;;9.83;;
787;SDS011;16074;42.708;23.312;2023-08-06T02:41:00;8.90;;;8.17;;
787;SDS011;16074;42.708;23.312;2023-08-06T02:43:30;9.40;;;8.50;;
787;SDS011;16074;42.708;23.312;2023-08-06T02:46:00;10.17;;;9.27;;
787;SDS011;16074;42.708;23.312;2023-08-06T02:48:28;10.27;;;9.27;;
787;SDS011;16074;42.708;23.312;2023-08-06T02:50:57;10.77;;;9.23;;
787;SDS011;16074;42.708;23.312;2023-08-06T02:53:28;10.33;;;9.33;;
787;SDS011;16074;42.708;23.312;2023-08-06T02:56:01;10.43;;;9.23;;
787;SDS011;16074;42.708;23.312;2023-08-06T02:58:40;10.80;;;9.30;;
787;SDS011;16074;42.708;23.312;2023-08-06T03:01:29;9.80;;;8.80;;
787;SDS011;16074;42.708;23.312;2023-08-06T03:04:04;9.83;;;8.83;;
787;SDS011;16074;42.708;23.312;2023-08-06T03:06:38;9.13;;;8.30;;
787;SDS011;16074;42.708;23.312;2023-08-06T03:09:06;11.20;;;8.43;;
787;SDS011;16074;42.708;23.312;2023-08-06T03:11:36;9.87;;;8.97;;
787;SDS011;16074;42.708;23.312;2023-08-06T03:14:09;9.87;;;8.77;;
787;SDS011;16074;42.708;23.312;2023-08-06T03:16:37;13.80;;;9.23;;
787;SDS011;16074;42.708;23.312;2023-08-06T03:19:06;9.23;;;8.40;;
787;SDS011;16074;42.708;23.312;2023-08-06T03:21:34;8.97;;;8.17;;
787;SDS011;16074;42.708;23.312;2023-08-06T03:24:03;11.43;;;9.83;;
787;SDS011;16074;42.708;23.312;2023-08-06T03:26:33;9.77;;;8.97;;
787;SDS011;16074;42.708;23.312;2023-08-06T03:29:03;9.77;;;8.87;;
787;SDS011;16074;42.708;23.312;2023-08-06T03:31:33;10.80;;;8.90;;
787;SDS011;16074;42.708;23.312;2023-08-06T03:34:02;10.60;;;9.60;;
787;SDS011;16074;42.708;23.312;2023-08-06T03:36:31;10.30;;;9.40;;
787;SDS011;16074;42.708;23.312;2023-08-06T03:39:00;10.20;;;8.30;;
787;SDS011;16074;42.708;23.312;2023-08-06T03:41:30;7.70;;;7.10;;
787;SDS011;16074;42.708;23.312;2023-08-06T03:43:59;7.50;;;6.90;;
787;SDS011;16074;42.708;23.312;2023-08-06T03:46:31;7.90;;;7.10;;
787;SDS011;16074;42.708;23.312;2023-08-06T03:49:03;8.20;;;7.43;;
787;SDS011;16074;42.708;23.312;2023-08-06T03:51:31;9.73;;;8.83;;
787;SDS011;16074;42.708;23.312;2023-08-06T03:54:01;9.20;;;8.40;;
787;SDS011;16074;42.708;23.312;2023-08-06T03:56:29;9.43;;;8.53;;
787;SDS011;16074;42.708;23.312;2023-08-06T03:58:58;8.90;;;8.07;;
787;SDS011;16074;42.708;23.312;2023-08-06T04:01:26;8.63;;;7.97;;
787;SDS011;16074;42.708;23.312;2023-08-06T04:03:56;12.77;;;8.90;;
787;SDS011;16074;42.708;23.312;2023-08-06T04:06:25;8.57;;;7.87;;
787;SDS011;16074;42.708;23.312;2023-08-06T04:08:53;8.83;;;8.00;;
787;SDS011;16074;42.708;23.312;2023-08-06T04:11:21;10.90;;;9.30;;
787;SDS011;16074;42.708;23.312;2023-08-06T04:13:49;11.77;;;10.63;;
787;SDS011;16074;42.708;23.312;2023-08-06T04:16:18;11.10;;;10.20;;
787;SDS011;16074;42.708;23.312;2023-08-06T04:18:46;9.97;;;9.13;;
787;SDS011;16074;42.708;23.312;2023-08-06T04:21:16;10.50;;;9.60;;
787;SDS011;16074;42.708;23.312;2023-08-06T04:23:46;9.77;;;8.87;;
787;SDS011;16074;42.708;23.312;2023-08-06T04:26:14;9.77;;;9.07;;
787;SDS011;16074;42.708;23.312;2023-08-06T04:28:43;13.10;;;9.37;;
787;SDS011;16074;42.708;23.312;2023-08-06T04:31:11;11.50;;;10.33;;
787;SDS011;16074;42.708;23.312;2023-08-06T04:33:42;10.40;;;9.50;;
787;SDS011;16074;42.708;23.312;2023-08-06T04:36:12;9.50;;;8.70;;
787;SDS011;16074;42.708;23.312;2023-08-06T04:38:42;10.50;;;9.43;;
787;SDS011;16074;42.708;23.312;2023-08-06T04:41:14;11.47;;;10.37;;
787;SDS011;16074;42.708;23.312;2023-08-06T04:43:43;12.07;;;10.87;;
787;SDS011;16074;42.708;23.312;2023-08-06T04:46:11;11.00;;;9.90;;
787;SDS011;16074;42.708;23.312;2023-08-06T04:48:40;11.33;;;10.20;;
787;SDS011;16074;42.708;23.312;2023-08-06T04:51:08;11.07;;;10.17;;
787;SDS011;16074;42.708;23.312;2023-08-06T04:53:36;10.23;;;9.23;;
787;SDS011;16074;42.708;23.312;2023-08-06T04:56:06;9.07;;;8.27;;
787;SDS011;16074;42.708;23.312;2023-08-06T04:58:34;9.70;;;8.90;;
787;SDS011;16074;42.708;23.312;2023-08-06T05:01:06;10.03;;;8.90;;
787;SDS011;16074;42.708;23.312;2023-08-06T05:03:34;9.63;;;8.93;;
787;SDS011;16074;42.708;23.312;2023-08-06T05:06:02;8.80;;;8.10;;
787;SDS011;16074;42.708;23.312;2023-08-06T05:08:31;7.80;;;7.13;;
787;SDS011;16074;42.708;23.312;2023-08-06T05:10:59;9.33;;;8.40;;
787;SDS011;16074;42.708;23.312;2023-08-06T05:13:29;8.40;;;7.80;;
787;SDS011;16074;42.708;23.312;2023-08-06T05:15:57;8.70;;;8.10;;
787;SDS011;16074;42.708;23.312;2023-08-06T05:18:25;8.40;;;7.70;;
787;SDS011;16074;42.708;23.312;2023-08-06T05:20:54;9.40;;;8.70;;
787;SDS011;16074;42.708;23.312;2023-08-06T05:23:22;9.10;;;8.40;;
787;SDS011;16074;42.708;23.312;2023-08-06T05:25:51;9.90;;;9.00;;
787;SDS011;16074;42.708;23.312;2023-08-06T05:28:19;8.77;;;8.00;;
787;SDS011;16074;42.708;23.312;2023-08-06T05:30:49;11.17;;;9.90;;
787;SDS011;16074;42.708;23.312;2023-08-06T05:33:17;9.90;;;8.90;;
787;SDS011;16074;42.708;23.312;2023-08-06T05:35:45;12.00;;;10.93;;
787;SDS011;16074;42.708;23.312;2023-08-06T05:38:13;12.40;;;10.90;;
787;SDS011;16074;42.708;23.312;2023-08-06T05:40:42;14.27;;;12.87;;
787;SDS011;16074;42.708;23.312;2023-08-06T05:43:10;12.90;;;11.60;;
787;SDS011;16074;42.708;23.312;2023-08-06T05:45:38;12.70;;;10.63;;
787;SDS011;16074;42.708;23.312;2023-08-06T05:48:08;10.87;;;9.97;;
787;SDS011;16074;42.708;23.312;2023-08-06T05:50:36;11.17;;;10.00;;
787;SDS011;16074;42.708;23.312;2023-08-06T05:53:04;10.23;;;9.37;;
787;SDS011;16074;42.708;23.312;2023-08-06T05:55:33;9.10;;;8.20;;
787;SDS011;16074;42.708;23.312;2023-08-06T05:58:02;9.27;;;8.47;;
787;SDS011;16074;42.708;23.312;2023-08-06T06:00:30;6.80;;;6.30;;
787;SDS011;16074;42.708;23.312;2023-08-06T06:02:58;5.83;;;5.33;;
787;SDS011;16074;42.708;23.312;2023-08-06T06:05:28;4.80;;;4.50;;
787;SDS011;16074;42.708;23.312;2023-08-06T06:07:56;8.17;;;5.33;;
787;SDS011;16074;42.708;23.312;2023-08-06T06:10:24;4.67;;;4.37;;
787;SDS011;16074;42.708;23.312;2023-08-06T06:12:53;4.50;;;4.23;;
787;SDS011;16074;42.708;23.312;2023-08-06T06:15:21;4.53;;;4.20;;
787;SDS011;16074;42.708;23.312;2023-08-06T06:17:49;6.37;;;4.20;;
787;SDS011;16074;42.708;23.312;2023-08-06T06:20:18;3.90;;;3.70;;
787;SDS011;16074;42.708;23.312;2023-08-06T06:22:47;4.27;;;4.00;;
787;SDS011;16074;42.708;23.312;2023-08-06T06:25:16;3.67;;;3.40;;
787;SDS011;16074;42.708;23.312;2023-08-06T06:27:44;4.90;;;4.50;;
787;SDS011;16074;42.708;23.312;2023-08-06T06:30:12;5.63;;;4.70;;
787;SDS011;16074;42.708;23.312;2023-08-06T06:32:41;4.57;;;4.27;;
787;SDS011;16074;42.708;23.312;2023-08-06T06:35:09;3.13;;;2.93;;
787;SDS011;16074;42.708;23.312;2023-08-06T06:37:37;3.43;;;3.23;;
787;SDS011;16074;42.708;23.312;2023-08-06T06:40:07;3.60;;;3.40;;
787;SDS011;16074;42.708;23.312;2023-08-06T06:42:36;3.37;;;3.17;;
787;SDS011;16074;42.708;23.312;2023-08-06T06:45:07;3.93;;;3.63;;
787;SDS011;16074;42.708;23.312;2023-08-06T06:47:36;7.30;;;3.90;;
787;SDS011;16074;42.708;23.312;2023-08-06T06:50:05;4.20;;;4.00;;
787;SDS011;16074;42.708;23.312;2023-08-06T06:52:34;4.50;;;4.17;;
787;SDS011;16074;42.708;23.312;2023-08-06T06:55:03;5.23;;;4.37;;
787;SDS011;16074;42.708;23.312;2023-08-06T06:57:33;3.60;;;3.40;;
787;SDS011;16074;42.708;23.312;2023-08-06T07:00:01;4.20;;;4.00;;
787;SDS011;16074;42.708;23.312;2023-08-06T07:02:32;3.70;;;3.43;;
787;SDS011;16074;42.708;23.312;2023-08-06T07:05:00;3.53;;;3.33;;
787;SDS011;16074;42.708;23.312;2023-08-06T07:07:29;4.13;;;3.70;;
787;SDS011;16074;42.708;23.312;2023-08-06T07:09:57;4.07;;;3.87;;
787;SDS011;16074;42.708;23.312;2023-08-06T07:12:25;4.03;;;3.73;;
787;SDS011;16074;42.708;23.312;2023-08-06T07:14:55;3.80;;;3.60;;
787;SDS011;16074;42.708;23.312;2023-08-06T07:17:23;4.57;;;4.17;;
787;SDS011;16074;42.708;23.312;2023-08-06T07:19:52;4.07;;;3.87;;
787;SDS011;16074;42.708;23.312;2023-08-06T07:22:20;4.07;;;3.87;;
787;SDS011;16074;42.708;23.312;2023-08-06T07:24:48;4.10;;;3.80;;
787;SDS011;16074;42.708;23.312;2023-08-06T07:27:17;4.30;;;3.57;;
787;SDS011;16074;42.708;23.312;2023-08-06T07:29:45;4.47;;;3.50;;
787;SDS011;16074;42.708;23.312;2023-08-06T07:32:16;4.40;;;4.07;;
787;SDS011;16074;42.708;23.312;2023-08-06T07:34:44;3.90;;;3.70;;
787;SDS011;16074;42.708;23.312;2023-08-06T07:37:12;4.73;;;4.33;;
787;SDS011;16074;42.708;23.312;2023-08-06T07:39:41;4.70;;;4.40;;
787;SDS011;16074;42.708;23.312;2023-08-06T07:42:10;4.50;;;4.20;;
787;SDS011;16074;42.708;23.312;2023-08-06T07:44:38;4.10;;;3.90;;
787;SDS011;16074;42.708;23.312;2023-08-06T07:47:07;4.13;;;3.80;;
787;SDS011;16074;42.708;23.312;2023-08-06T07:49:36;4.13;;;3.93;;
787;SDS011;16074;42.708;23.312;2023-08-06T07:52:05;4.03;;;3.83;;
787;SDS011;16074;42.708;23.312;2023-08-06T07:54:33;3.30;;;3.20;;
787;SDS011;16074;42.708;23.312;2023-08-06T07:57:02;5.13;;;4.50;;
787;SDS011;16074;42.708;23.312;2023-08-06T07:59:30;3.93;;;3.63;;
787;SDS011;16074;42.708;23.312;2023-08-06T08:01:58;3.63;;;3.43;;
787;SDS011;16074;42.708;23.312;2023-08-06T08:04:27;4.30;;;4.10;;
787;SDS011;16074;42.708;23.312;2023-08-06T08:06:57;4.20;;;4.00;;
787;SDS011;16074;42.708;23.312;2023-08-06T08:09:25;4.83;;;4.63;;
787;SDS011;16074;42.708;23.312;2023-08-06T08:11:54;4.33;;;4.03;;
787;SDS011;16074;42.708;23.312;2023-08-06T08:14:26;4.40;;;4.10;;
787;SDS011;16074;42.708;23.312;2023-08-06T08:16:55;4.80;;;4.40;;
787;SDS011;16074;42.708;23.312;2023-08-06T08:19:24;4.87;;;4.30;;
787;SDS011;16074;42.708;23.312;2023-08-06T08:21:52;4.47;;;4.27;;
787;SDS011;16074;42.708;23.312;2023-08-06T08:24:23;4.40;;;3.97;;
787;SDS011;16074;42.708;23.312;2023-08-06T08:26:53;4.77;;;4.37;;
787;SDS011;16074;42.708;23.312;2023-08-06T08:29:21;4.83;;;4.63;;
787;SDS011;16074;42.708;23.312;2023-08-06T08:31:50;4.40;;;3.97;;
787;SDS011;16074;42.708;23.312;2023-08-06T08:34:19;5.70;;;4.80;;
787;SDS011;16074;42.708;23.312;2023-08-06T08:36:47;4.90;;;4.50;;
787;SDS011;16074;42.708;23.312;2023-08-06T08:39:16;4.20;;;4.00;;
787;SDS011;16074;42.708;23.312;2023-08-06T08:41:46;4.10;;;3.70;;
787;SDS011;16074;42.708;23.312;2023-08-06T08:44:14;4.07;;;3.87;;
787;SDS011;16074;42.708;23.312;2023-08-06T08:46:45;4.23;;;4.03;;
787;SDS011;16074;42.708;23.312;2023-08-06T08:49:14;4.23;;;4.03;;
787;SDS011;16074;42.708;23.312;2023-08-06T08:51:43;4.63;;;4.33;;
787;SDS011;16074;42.708;23.312;2023-08-06T08:54:13;3.83;;;3.63;;
787;SDS011;16074;42.708;23.312;2023-08-06T08:56:46;4.00;;;3.70;;
787;SDS011;16074;42.708;23.312;2023-08-06T08:59:14;4.10;;;3.90;;
787;SDS011;16074;42.708;23.312;2023-08-06T09:01:42;4.63;;;4.33;;
787;SDS011;16074;42.708;23.312;2023-08-06T09:04:17;4.73;;;4.43;;
787;SDS011;16074;42.708;23.312;2023-08-06T09:06:46;6.50;;;4.33;;
787;SDS011;16074;42.708;23.312;2023-08-06T09:09:20;4.57;;;4.17;;
787;SDS011;16074;42.708;23.312;2023-08-06T09:11:53;5.50;;;5.13;;
787;SDS011;16074;42.708;23.312;2023-08-06T09:14:28;6.00;;;4.50;;
787;SDS011;16074;42.708;23.312;2023-08-06T09:16:56;3.93;;;3.73;;
787;SDS011;16074;42.708;23.312;2023-08-06T09:19:25;4.97;;;4.57;;
787;SDS011;16074;42.708;23.312;2023-08-06T09:21:55;4.53;;;4.33;;
787;SDS011;16074;42.708;23.312;2023-08-06T09:24:24;4.37;;;4.07;;
787;SDS011;16074;42.708;23.312;2023-08-06T09:26:54;4.30;;;4.10;;
787;SDS011;16074;42.708;23.312;2023-08-06T09:29:22;4.03;;;3.83;;
787;SDS011;16074;42.708;23.312;2023-08-06T09:31:50;4.20;;;3.80;;
787;SDS011;16074;42.708;23.312;2023-08-06T09:34:20;4.13;;;3.93;;
787;SDS011;16074;42.708;23.312;2023-08-06T09:36:50;4.10;;;3.90;;
787;SDS011;16074;42.708;23.312;2023-08-06T09:39:21;4.03;;;3.73;;
787;SDS011;16074;42.708;23.312;2023-08-06T09:41:56;3.90;;;3.60;;
787;SDS011;16074;42.708;23.312;2023-08-06T09:44:25;3.70;;;3.50;;
787;SDS011;16074;42.708;23.312;2023-08-06T09:46:55;3.80;;;3.60;;
787;SDS011;16074;42.708;23.312;2023-08-06T09:49:25;3.70;;;3.50;;
787;SDS011;16074;42.708;23.312;2023-08-06T09:51:54;3.90;;;3.53;;
787;SDS011;16074;42.708;23.312;2023-08-06T09:54:25;2.80;;;2.70;;
787;SDS011;16074;42.708;23.312;2023-08-06T09:56:56;3.70;;;3.50;;
787;SDS011;16074;42.708;23.312;2023-08-06T09:59:25;3.63;;;3.43;;
787;SDS011;16074;42.708;23.312;2023-08-06T10:01:54;3.13;;;3.00;;
787;SDS011;16074;42.708;23.312;2023-08-06T10:04:23;3.53;;;3.23;;
787;SDS011;16074;42.708;23.312;2023-08-06T10:07:01;3.13;;;2.83;;
787;SDS011;16074;42.708;23.312;2023-08-06T10:09:29;3.33;;;3.13;;
787;SDS011;16074;42.708;23.312;2023-08-06T10:11:59;3.60;;;3.30;;
787;SDS011;16074;42.708;23.312;2023-08-06T10:14:28;3.17;;;3.03;;
787;SDS011;16074;42.708;23.312;2023-08-06T10:17:00;3.10;;;2.90;;
787;SDS011;16074;42.708;23.312;2023-08-06T10:19:29;3.33;;;3.13;;
787;SDS011;16074;42.708;23.312;2023-08-06T10:22:09;3.10;;;2.90;;
787;SDS011;16074;42.708;23.312;2023-08-06T10:24:51;3.43;;;3.23;;
787;SDS011;16074;42.708;23.312;2023-08-06T10:27:22;3.70;;;3.50;;
787;SDS011;16074;42.708;23.312;2023-08-06T10:29:56;3.93;;;3.57;;
787;SDS011;16074;42.708;23.312;2023-08-06T10:38:16;4.30;;;3.90;;
787;SDS011;16074;42.708;23.312;2023-08-06T10:40:48;3.97;;;3.77;;
787;SDS011;16074;42.708;23.312;2023-08-06T10:43:29;3.63;;;3.40;;
787;SDS011;16074;42.708;23.312;2023-08-06T10:45:58;3.50;;;3.30;;
787;SDS011;16074;42.708;23.312;2023-08-06T10:48:30;4.07;;;3.87;;
787;SDS011;16074;42.708;23.312;2023-08-06T10:51:01;4.10;;;3.80;;
787;SDS011;16074;42.708;23.312;2023-08-06T10:53:31;4.10;;;3.90;;
787;SDS011;16074;42.708;23.312;2023-08-06T10:56:00;4.73;;;4.40;;
787;SDS011;16074;42.708;23.312;2023-08-06T10:58:33;5.57;;;5.20;;
787;SDS011;16074;42.708;23.312;2023-08-06T11:01:01;4.70;;;4.30;;
787;SDS011;16074;42.708;23.312;2023-08-06T11:03:30;5.13;;;4.83;;
787;SDS011;16074;42.708;23.312;2023-08-06T11:05:59;4.67;;;4.33;;
787;SDS011;16074;42.708;23.312;2023-08-06T11:08:33;4.90;;;4.60;;
787;SDS011;16074;42.708;23.312;2023-08-06T11:11:08;5.17;;;4.87;;
787;SDS011;16074;42.708;23.312;2023-08-06T11:13:41;5.90;;;5.50;;
787;SDS011;16074;42.708;23.312;2023-08-06T11:16:11;5.87;;;5.37;;
787;SDS011;16074;42.708;23.312;2023-08-06T11:18:40;5.90;;;5.50;;
787;SDS011;16074;42.708;23.312;2023-08-06T11:21:08;5.60;;;5.20;;
787;SDS011;16074;42.708;23.312;2023-08-06T11:23:38;5.47;;;5.00;;
787;SDS011;16074;42.708;23.312;2023-08-06T11:26:08;5.53;;;5.23;;
787;SDS011;16074;42.708;23.312;2023-08-06T11:28:36;8.10;;;6.00;;
787;SDS011;16074;42.708;23.312;2023-08-06T11:31:06;5.93;;;5.53;;
787;SDS011;16074;42.708;23.312;2023-08-06T11:33:34;5.70;;;5.30;;
787;SDS011;16074;42.708;23.312;2023-08-06T11:36:03;5.60;;;5.30;;
787;SDS011;16074;42.708;23.312;2023-08-06T11:38:32;6.10;;;5.63;;
787;SDS011;16074;42.708;23.312;2023-08-06T11:41:00;5.50;;;5.10;;
787;SDS011;16074;42.708;23.312;2023-08-06T11:43:30;5.90;;;5.30;;
787;SDS011;16074;42.708;23.312;2023-08-06T11:45:59;6.07;;;5.67;;
787;SDS011;16074;42.708;23.312;2023-08-06T11:48:29;5.37;;;5.07;;
787;SDS011;16074;42.708;23.312;2023-08-06T11:50:57;6.10;;;5.60;;
787;SDS011;16074;42.708;23.312;2023-08-06T11:53:27;5.20;;;4.90;;
787;SDS011;16074;42.708;23.312;2023-08-06T11:55:56;6.07;;;5.47;;
787;SDS011;16074;42.708;23.312;2023-08-06T11:58:24;6.70;;;6.20;;
787;SDS011;16074;42.708;23.312;2023-08-06T12:00:53;6.23;;;5.90;;
787;SDS011;16074;42.708;23.312;2023-08-06T12:03:23;7.10;;;6.60;;
787;SDS011;16074;42.708;23.312;2023-08-06T12:05:56;6.60;;;6.20;;
787;SDS011;16074;42.708;23.312;2023-08-06T12:08:26;8.17;;;6.07;;
787;SDS011;16074;42.708;23.312;2023-08-06T12:10:55;6.30;;;5.90;;
787;SDS011;16074;42.708;23.312;2023-08-06T12:13:23;6.50;;;6.20;;
787;SDS011;16074;42.708;23.312;2023-08-06T12:15:51;6.83;;;6.30;;
787;SDS011;16074;42.708;23.312;2023-08-06T12:18:20;6.70;;;6.40;;
787;SDS011;16074;42.708;23.312;2023-08-06T12:20:49;6.73;;;6.27;;
787;SDS011;16074;42.708;23.312;2023-08-06T12:23:18;6.53;;;6.13;;
787;SDS011;16074;42.708;23.312;2023-08-06T12:25:47;9.13;;;8.30;;
787;SDS011;16074;42.708;23.312;2023-08-06T12:28:16;8.47;;;7.83;;
787;SDS011;16074;42.708;23.312;2023-08-06T12:30:45;8.30;;;7.73;;
787;SDS011;16074;42.708;23.312;2023-08-06T12:33:14;7.70;;;7.10;;
787;SDS011;16074;42.708;23.312;2023-08-06T12:35:42;8.03;;;7.33;;
787;SDS011;16074;42.708;23.312;2023-08-06T12:38:10;7.60;;;7.17;;
787;SDS011;16074;42.708;23.312;2023-08-06T12:40:41;8.00;;;7.50;;
787;SDS011;16074;42.708;23.312;2023-08-06T12:43:10;7.50;;;7.10;;
787;SDS011;16074;42.708;23.312;2023-08-06T12:45:38;8.50;;;7.90;;
787;SDS011;16074;42.708;23.312;2023-08-06T12:48:06;8.33;;;7.83;;
787;SDS011;16074;42.708;23.312;2023-08-06T12:50:35;8.60;;;8.10;;
787;SDS011;16074;42.708;23.312;2023-08-06T12:53:03;7.80;;;7.30;;
787;SDS011;16074;42.708;23.312;2023-08-06T12:55:32;7.17;;;6.67;;
787;SDS011;16074;42.708;23.312;2023-08-06T12:58:02;8.03;;;7.53;;
787;SDS011;16074;42.708;23.312;2023-08-06T13:00:30;8.30;;;7.60;;
787;SDS011;16074;42.708;23.312;2023-08-06T13:02:59;8.50;;;7.90;;
787;SDS011;16074;42.708;23.312;2023-08-06T13:05:27;7.37;;;6.87;;
787;SDS011;16074;42.708;23.312;2023-08-06T13:07:55;7.97;;;7.37;;
787;SDS011;16074;42.708;23.312;2023-08-06T13:10:23;7.30;;;6.80;;
787;SDS011;16074;42.708;23.312;2023-08-06T13:12:54;8.10;;;7.60;;
787;SDS011;16074;42.708;23.312;2023-08-06T13:15:23;7.47;;;6.97;;
787;SDS011;16074;42.708;23.312;2023-08-06T13:17:51;7.33;;;6.93;;
787;SDS011;16074;42.708;23.312;2023-08-06T13:20:20;6.97;;;6.47;;
787;SDS011;16074;42.708;23.312;2023-08-06T13:22:49;7.03;;;6.53;;
787;SDS011;16074;42.708;23.312;2023-08-06T13:25:20;6.70;;;6.30;;
787;SDS011;16074;42.708;23.312;2023-08-06T13:27:48;6.60;;;6.20;;
787;SDS011;16074;42.708;23.312;2023-08-06T13:30:16;7.47;;;6.97;;
787;SDS011;16074;42.708;23.312;2023-08-06T13:32:46;7.33;;;6.80;;
787;SDS011;16074;42.708;23.312;2023-08-06T13:35:15;7.37;;;6.90;;
787;SDS011;16074;42.708;23.312;2023-08-06T13:37:43;7.20;;;6.50;;
787;SDS011;16074;42.708;23.312;2023-08-06T13:40:11;7.70;;;7.20;;
787;SDS011;16074;42.708;23.312;2023-08-06T13:42:39;7.43;;;6.97;;
787;SDS011;16074;42.708;23.312;2023-08-06T13:45:08;7.50;;;6.90;;
787;SDS011;16074;42.708;23.312;2023-08-06T13:47:37;8.03;;;7.37;;
787;SDS011;16074;42.708;23.312;2023-08-06T13:50:07;6.97;;;6.47;;
787;SDS011;16074;42.708;23.312;2023-08-06T13:52:36;7.90;;;7.13;;
787;SDS011;16074;42.708;23.312;2023-08-06T13:55:04;7.30;;;6.90;;
787;SDS011;16074;42.708;23.312;2023-08-06T13:57:33;7.23;;;6.83;;
787;SDS011;16074;42.708;23.312;2023-08-06T14:00:02;6.20;;;5.80;;
787;SDS011;16074;42.708;23.312;2023-08-06T14:02:38;6.57;;;6.07;;
787;SDS011;16074;42.708;23.312;2023-08-06T14:05:08;6.60;;;6.17;;
787;SDS011;16074;42.708;23.312;2023-08-06T14:07:36;6.57;;;6.17;;
787;SDS011;16074;42.708;23.312;2023-08-06T14:10:05;5.83;;;5.53;;
787;SDS011;16074;42.708;23.312;2023-08-06T14:12:35;6.23;;;5.83;;
787;SDS011;16074;42.708;23.312;2023-08-06T14:15:04;6.93;;;6.53;;
787;SDS011;16074;42.708;23.312;2023-08-06T14:17:33;6.13;;;5.73;;
787;SDS011;16074;42.708;23.312;2023-08-06T14:20:01;5.37;;;4.97;;
787;SDS011;16074;42.708;23.312;2023-08-06T14:22:32;6.77;;;6.17;;
787;SDS011;16074;42.708;23.312;2023-08-06T14:25:00;5.60;;;5.30;;
787;SDS011;16074;42.708;23.312;2023-08-06T14:27:28;5.47;;;5.20;;
787;SDS011;16074;42.708;23.312;2023-08-06T14:29:57;6.03;;;5.73;;
787;SDS011;16074;42.708;23.312;2023-08-06T14:32:25;5.90;;;5.60;;
787;SDS011;16074;42.708;23.312;2023-08-06T14:34:53;5.53;;;5.23;;
787;SDS011;16074;42.708;23.312;2023-08-06T14:37:22;6.03;;;5.60;;
787;SDS011;16074;42.708;23.312;2023-08-06T14:39:51;6.23;;;5.93;;
787;SDS011;16074;42.708;23.312;2023-08-06T14:42:20;4.93;;;4.63;;
787;SDS011;16074;42.708;23.312;2023-08-06T14:44:49;5.93;;;5.40;;
787;SDS011;16074;42.708;23.312;2023-08-06T14:47:17;5.27;;;5.07;;
787;SDS011;16074;42.708;23.312;2023-08-06T14:49:46;5.60;;;5.10;;
787;SDS011;16074;42.708;23.312;2023-08-06T14:52:16;5.90;;;5.60;;
787;SDS011;16074;42.708;23.312;2023-08-06T14:54:44;6.37;;;5.77;;
787;SDS011;16074;42.708;23.312;2023-08-06T14:57:14;6.20;;;5.70;;
787;SDS011;16074;42.708;23.312;2023-08-06T14:59:42;6.17;;;5.63;;
787;SDS011;16074;42.708;23.312;2023-08-06T15:02:11;6.53;;;6.03;;
787;SDS011;16074;42.708;23.312;2023-08-06T15:04:39;6.60;;;6.10;;
787;SDS011;16074;42.708;23.312;2023-08-06T15:07:07;5.83;;;5.37;;
787;SDS011;16074;42.708;23.312;2023-08-06T15:09:36;6.67;;;6.27;;
787;SDS011;16074;42.708;23.312;2023-08-06T15:12:25;6.07;;;5.57;;
787;SDS011;16074;42.708;23.312;2023-08-06T15:14:54;5.90;;;5.60;;
787;SDS011;16074;42.708;23.312;2023-08-06T15:17:23;5.90;;;5.50;;